sensor_id;sensor_type;location;lat;lon;timestamp;P1;durP1;ratioP1;P2;durP2;ratioP2
10511;SDS011;5304;48.604;2.096;2023-02-28T00:00:14;16.73;;;8.27;;
10511;SDS011;5304;48.604;2.096;2023-02-28T00:02:59;10.60;;;7.83;;
10511;SDS011;5304;48.604;2.096;2023-02-28T00:05:44;11.67;;;7.87;;
10511;SDS011;5304;48.604;2.096;2023-02-28T00:08:28;11.40;;;7.47;;
10511;SDS011;5304;48.604;2.096;2023-02-28T00:11:13;8.40;;;7.03;;
10511;SDS011;5304;48.604;2.096;2023-02-28T00:13:59;15.53;;;8.23;;
10511;SDS011;5304;48.604;2.096;2023-02-28T00:16:43;9.43;;;6.67;;
10511;SDS011;5304;48.604;2.096;2023-02-28T00:19:29;11.30;;;7.00;;
10511;SDS011;5304;48.604;2.096;2023-02-28T00:22:14;9.83;;;7.57;;
10511;SDS011;5304;48.604;2.096;2023-02-28T00:24:59;11.27;;;7.90;;
10511;SDS011;5304;48.604;2.096;2023-02-28T00:27:44;10.00;;;7.60;;
10511;SDS011;5304;48.604;2.096;2023-02-28T00:30:29;11.27;;;8.10;;
10511;SDS011;5304;48.604;2.096;2023-02-28T00:33:13;8.83;;;7.20;;
10511;SDS011;5304;48.604;2.096;2023-02-28T00:36:05;12.97;;;8.03;;
10511;SDS011;5304;48.604;2.096;2023-02-28T00:38:51;10.03;;;6.70;;
10511;SDS011;5304;48.604;2.096;2023-02-28T00:41:36;8.80;;;6.67;;
10511;SDS011;5304;48.604;2.096;2023-02-28T00:44:20;8.10;;;6.90;;
10511;SDS011;5304;48.604;2.096;2023-02-28T00:47:05;7.77;;;6.37;;
10511;SDS011;5304;48.604;2.096;2023-02-28T00:49:49;9.43;;;6.40;;
10511;SDS011;5304;48.604;2.096;2023-02-28T00:52:33;9.20;;;6.93;;
10511;SDS011;5304;48.604;2.096;2023-02-28T00:55:18;8.47;;;6.30;;
10511;SDS011;5304;48.604;2.096;2023-02-28T00:58:02;7.70;;;5.90;;
10511;SDS011;5304;48.604;2.096;2023-02-28T01:00:47;7.70;;;6.10;;
10511;SDS011;5304;48.604;2.096;2023-02-28T01:03:32;7.27;;;5.87;;
10511;SDS011;5304;48.604;2.096;2023-02-28T01:06:17;9.07;;;6.37;;
10511;SDS011;5304;48.604;2.096;2023-02-28T01:09:02;8.17;;;5.80;;
10511;SDS011;5304;48.604;2.096;2023-02-28T01:11:48;7.07;;;4.87;;
10511;SDS011;5304;48.604;2.096;2023-02-28T01:14:33;7.90;;;5.67;;
10511;SDS011;5304;48.604;2.096;2023-02-28T01:17:18;9.03;;;5.73;;
10511;SDS011;5304;48.604;2.096;2023-02-28T01:20:03;7.70;;;5.23;;
10511;SDS011;5304;48.604;2.096;2023-02-28T01:22:48;8.00;;;5.33;;
10511;SDS011;5304;48.604;2.096;2023-02-28T01:25:34;7.97;;;5.83;;
10511;SDS011;5304;48.604;2.096;2023-02-28T01:28:19;10.77;;;4.90;;
10511;SDS011;5304;48.604;2.096;2023-02-28T01:31:04;11.43;;;6.07;;
10511;SDS011;5304;48.604;2.096;2023-02-28T01:33:49;9.90;;;6.60;;
10511;SDS011;5304;48.604;2.096;2023-02-28T01:36:34;7.60;;;5.23;;
10511;SDS011;5304;48.604;2.096;2023-02-28T01:39:18;8.43;;;5.90;;
10511;SDS011;5304;48.604;2.096;2023-02-28T01:42:03;9.20;;;5.60;;
10511;SDS011;5304;48.604;2.096;2023-02-28T01:45:03;14.20;;;5.60;;
10511;SDS011;5304;48.604;2.096;2023-02-28T01:48:00;9.30;;;5.47;;
10511;SDS011;5304;48.604;2.096;2023-02-28T01:50:49;6.23;;;4.83;;
10511;SDS011;5304;48.604;2.096;2023-02-28T01:53:37;6.90;;;4.77;;
10511;SDS011;5304;48.604;2.096;2023-02-28T01:56:27;7.80;;;5.30;;
10511;SDS011;5304;48.604;2.096;2023-02-28T01:59:38;9.30;;;5.57;;
10511;SDS011;5304;48.604;2.096;2023-02-28T02:02:32;7.33;;;5.10;;
10511;SDS011;5304;48.604;2.096;2023-02-28T02:05:18;7.77;;;5.53;;
10511;SDS011;5304;48.604;2.096;2023-02-28T02:08:11;7.87;;;5.40;;
10511;SDS011;5304;48.604;2.096;2023-02-28T02:11:07;6.93;;;4.53;;
10511;SDS011;5304;48.604;2.096;2023-02-28T02:14:00;7.93;;;5.00;;
10511;SDS011;5304;48.604;2.096;2023-02-28T02:20:23;7.23;;;4.63;;
10511;SDS011;5304;48.604;2.096;2023-02-28T02:29:08;9.73;;;5.00;;
10511;SDS011;5304;48.604;2.096;2023-02-28T02:43:53;5.40;;;4.00;;
10511;SDS011;5304;48.604;2.096;2023-02-28T02:46:48;7.67;;;4.73;;
10511;SDS011;5304;48.604;2.096;2023-02-28T02:49:38;9.33;;;4.33;;
10511;SDS011;5304;48.604;2.096;2023-02-28T02:52:30;7.50;;;4.00;;
10511;SDS011;5304;48.604;2.096;2023-02-28T02:55:21;6.53;;;4.10;;
10511;SDS011;5304;48.604;2.096;2023-02-28T02:58:08;6.53;;;4.30;;
10511;SDS011;5304;48.604;2.096;2023-02-28T03:01:02;6.30;;;3.80;;
10511;SDS011;5304;48.604;2.096;2023-02-28T03:03:48;5.13;;;3.43;;
10511;SDS011;5304;48.604;2.096;2023-02-28T03:06:33;6.47;;;4.40;;
10511;SDS011;5304;48.604;2.096;2023-02-28T03:09:18;5.00;;;3.53;;
10511;SDS011;5304;48.604;2.096;2023-02-28T03:12:03;5.23;;;3.43;;
10511;SDS011;5304;48.604;2.096;2023-02-28T03:17:49;4.90;;;3.70;;
10511;SDS011;5304;48.604;2.096;2023-02-28T03:20:49;6.43;;;3.80;;
10511;SDS011;5304;48.604;2.096;2023-02-28T03:24:10;4.90;;;3.53;;
10511;SDS011;5304;48.604;2.096;2023-02-28T03:27:03;3.87;;;3.27;;
10511;SDS011;5304;48.604;2.096;2023-02-28T03:30:06;4.40;;;3.33;;
10511;SDS011;5304;48.604;2.096;2023-02-28T03:33:03;3.90;;;3.50;;
10511;SDS011;5304;48.604;2.096;2023-02-28T03:36:32;6.10;;;3.50;;
10511;SDS011;5304;48.604;2.096;2023-02-28T03:39:35;5.30;;;3.97;;
10511;SDS011;5304;48.604;2.096;2023-02-28T03:42:24;8.73;;;3.93;;
10511;SDS011;5304;48.604;2.096;2023-02-28T03:45:13;4.77;;;3.87;;
10511;SDS011;5304;48.604;2.096;2023-02-28T03:51:21;6.90;;;3.83;;
10511;SDS011;5304;48.604;2.096;2023-02-28T03:54:10;5.50;;;3.90;;
10511;SDS011;5304;48.604;2.096;2023-02-28T03:57:02;7.73;;;3.97;;
10511;SDS011;5304;48.604;2.096;2023-02-28T04:02:54;7.47;;;4.63;;
10511;SDS011;5304;48.604;2.096;2023-02-28T04:05:52;7.73;;;3.80;;
10511;SDS011;5304;48.604;2.096;2023-02-28T04:08:38;6.20;;;3.67;;
10511;SDS011;5304;48.604;2.096;2023-02-28T04:11:38;4.27;;;3.60;;
10511;SDS011;5304;48.604;2.096;2023-02-28T04:14:22;4.00;;;3.23;;
10511;SDS011;5304;48.604;2.096;2023-02-28T04:17:07;5.73;;;3.77;;
10511;SDS011;5304;48.604;2.096;2023-02-28T04:19:52;5.50;;;3.20;;
10511;SDS011;5304;48.604;2.096;2023-02-28T04:22:37;5.90;;;3.93;;
10511;SDS011;5304;48.604;2.096;2023-02-28T04:25:22;5.30;;;3.37;;
10511;SDS011;5304;48.604;2.096;2023-02-28T04:28:06;6.77;;;4.13;;
10511;SDS011;5304;48.604;2.096;2023-02-28T04:31:09;8.20;;;3.57;;
10511;SDS011;5304;48.604;2.096;2023-02-28T04:33:54;5.17;;;3.57;;
10511;SDS011;5304;48.604;2.096;2023-02-28T04:36:38;4.27;;;3.20;;
10511;SDS011;5304;48.604;2.096;2023-02-28T04:39:24;5.23;;;3.90;;
10511;SDS011;5304;48.604;2.096;2023-02-28T04:42:08;6.77;;;3.97;;
10511;SDS011;5304;48.604;2.096;2023-02-28T04:44:54;5.53;;;3.20;;
10511;SDS011;5304;48.604;2.096;2023-02-28T04:47:38;5.10;;;4.00;;
10511;SDS011;5304;48.604;2.096;2023-02-28T04:50:22;6.00;;;4.27;;
10511;SDS011;5304;48.604;2.096;2023-02-28T04:53:07;5.03;;;3.70;;
10511;SDS011;5304;48.604;2.096;2023-02-28T04:55:52;4.03;;;3.23;;
10511;SDS011;5304;48.604;2.096;2023-02-28T04:58:36;5.83;;;4.00;;
10511;SDS011;5304;48.604;2.096;2023-02-28T05:04:08;4.83;;;3.67;;
10511;SDS011;5304;48.604;2.096;2023-02-28T05:06:53;5.70;;;3.90;;
10511;SDS011;5304;48.604;2.096;2023-02-28T05:09:37;5.73;;;3.50;;
10511;SDS011;5304;48.604;2.096;2023-02-28T05:12:22;5.63;;;3.73;;
10511;SDS011;5304;48.604;2.096;2023-02-28T05:15:07;4.13;;;3.47;;
10511;SDS011;5304;48.604;2.096;2023-02-28T05:17:56;5.17;;;3.50;;
10511;SDS011;5304;48.604;2.096;2023-02-28T05:20:41;6.33;;;3.37;;
10511;SDS011;5304;48.604;2.096;2023-02-28T05:23:25;5.03;;;3.57;;
10511;SDS011;5304;48.604;2.096;2023-02-28T05:26:10;4.87;;;3.37;;
10511;SDS011;5304;48.604;2.096;2023-02-28T05:28:54;5.43;;;3.57;;
10511;SDS011;5304;48.604;2.096;2023-02-28T05:31:40;6.67;;;3.77;;
10511;SDS011;5304;48.604;2.096;2023-02-28T05:34:25;5.20;;;3.83;;
10511;SDS011;5304;48.604;2.096;2023-02-28T05:37:13;5.33;;;3.60;;
10511;SDS011;5304;48.604;2.096;2023-02-28T05:39:59;4.13;;;3.33;;
10511;SDS011;5304;48.604;2.096;2023-02-28T05:42:43;5.20;;;3.60;;
10511;SDS011;5304;48.604;2.096;2023-02-28T05:45:28;5.00;;;3.50;;
10511;SDS011;5304;48.604;2.096;2023-02-28T05:48:13;3.70;;;3.03;;
10511;SDS011;5304;48.604;2.096;2023-02-28T05:50:57;5.80;;;3.20;;
10511;SDS011;5304;48.604;2.096;2023-02-28T05:53:42;7.40;;;3.63;;
10511;SDS011;5304;48.604;2.096;2023-02-28T05:56:27;4.83;;;3.83;;
10511;SDS011;5304;48.604;2.096;2023-02-28T05:59:12;5.07;;;3.47;;
10511;SDS011;5304;48.604;2.096;2023-02-28T06:01:57;4.20;;;3.33;;
10511;SDS011;5304;48.604;2.096;2023-02-28T06:04:41;5.17;;;3.63;;
10511;SDS011;5304;48.604;2.096;2023-02-28T06:07:26;4.83;;;3.20;;
10511;SDS011;5304;48.604;2.096;2023-02-28T06:10:11;4.40;;;3.33;;
10511;SDS011;5304;48.604;2.096;2023-02-28T06:12:59;4.63;;;3.07;;
10511;SDS011;5304;48.604;2.096;2023-02-28T06:15:46;4.93;;;3.53;;
10511;SDS011;5304;48.604;2.096;2023-02-28T06:18:30;5.03;;;3.50;;
10511;SDS011;5304;48.604;2.096;2023-02-28T06:21:15;5.97;;;2.93;;
10511;SDS011;5304;48.604;2.096;2023-02-28T06:23:59;6.90;;;3.10;;
10511;SDS011;5304;48.604;2.096;2023-02-28T06:26:44;4.07;;;3.60;;
10511;SDS011;5304;48.604;2.096;2023-02-28T06:29:29;4.87;;;3.70;;
10511;SDS011;5304;48.604;2.096;2023-02-28T06:32:14;6.40;;;4.10;;
10511;SDS011;5304;48.604;2.096;2023-02-28T06:34:59;5.73;;;4.40;;
10511;SDS011;5304;48.604;2.096;2023-02-28T06:37:43;4.27;;;3.63;;
10511;SDS011;5304;48.604;2.096;2023-02-28T06:40:28;5.77;;;3.83;;
10511;SDS011;5304;48.604;2.096;2023-02-28T06:43:15;6.13;;;4.33;;
10511;SDS011;5304;48.604;2.096;2023-02-28T06:46:01;8.73;;;4.70;;
10511;SDS011;5304;48.604;2.096;2023-02-28T06:48:46;5.67;;;4.43;;
10511;SDS011;5304;48.604;2.096;2023-02-28T06:51:31;6.23;;;4.57;;
10511;SDS011;5304;48.604;2.096;2023-02-28T06:54:15;7.03;;;5.33;;
10511;SDS011;5304;48.604;2.096;2023-02-28T06:57:00;7.83;;;5.07;;
10511;SDS011;5304;48.604;2.096;2023-02-28T06:59:44;7.20;;;5.23;;
10511;SDS011;5304;48.604;2.096;2023-02-28T07:02:29;8.70;;;5.13;;
10511;SDS011;5304;48.604;2.096;2023-02-28T07:05:15;6.50;;;5.20;;
10511;SDS011;5304;48.604;2.096;2023-02-28T07:07:59;9.00;;;5.40;;
10511;SDS011;5304;48.604;2.096;2023-02-28T07:10:43;10.17;;;6.03;;
10511;SDS011;5304;48.604;2.096;2023-02-28T07:13:28;9.07;;;6.10;;
10511;SDS011;5304;48.604;2.096;2023-02-28T07:16:13;11.87;;;6.60;;
10511;SDS011;5304;48.604;2.096;2023-02-28T07:18:58;9.03;;;6.23;;
10511;SDS011;5304;48.604;2.096;2023-02-28T07:21:43;9.87;;;6.47;;
10511;SDS011;5304;48.604;2.096;2023-02-28T07:24:27;10.57;;;6.00;;
10511;SDS011;5304;48.604;2.096;2023-02-28T07:27:13;12.37;;;7.23;;
10511;SDS011;5304;48.604;2.096;2023-02-28T07:30:07;10.30;;;6.80;;
10511;SDS011;5304;48.604;2.096;2023-02-28T07:32:52;13.90;;;7.57;;
10511;SDS011;5304;48.604;2.096;2023-02-28T07:35:39;10.00;;;7.33;;
10511;SDS011;5304;48.604;2.096;2023-02-28T07:38:24;9.10;;;7.03;;
10511;SDS011;5304;48.604;2.096;2023-02-28T07:41:08;11.77;;;7.77;;
10511;SDS011;5304;48.604;2.096;2023-02-28T07:43:53;11.20;;;7.37;;
10511;SDS011;5304;48.604;2.096;2023-02-28T07:46:39;14.17;;;8.20;;
10511;SDS011;5304;48.604;2.096;2023-02-28T07:49:23;10.67;;;7.80;;
10511;SDS011;5304;48.604;2.096;2023-02-28T07:52:08;15.13;;;8.67;;
10511;SDS011;5304;48.604;2.096;2023-02-28T07:54:53;12.93;;;8.50;;
10511;SDS011;5304;48.604;2.096;2023-02-28T07:57:37;16.00;;;7.20;;
10511;SDS011;5304;48.604;2.096;2023-02-28T08:00:22;10.97;;;8.03;;
10511;SDS011;5304;48.604;2.096;2023-02-28T08:03:08;13.17;;;7.73;;
10511;SDS011;5304;48.604;2.096;2023-02-28T08:05:56;16.27;;;9.13;;
10511;SDS011;5304;48.604;2.096;2023-02-28T08:08:41;13.00;;;8.30;;
10511;SDS011;5304;48.604;2.096;2023-02-28T08:11:27;14.20;;;8.37;;
10511;SDS011;5304;48.604;2.096;2023-02-28T08:14:11;14.50;;;8.23;;
10511;SDS011;5304;48.604;2.096;2023-02-28T08:16:56;11.37;;;7.90;;
10511;SDS011;5304;48.604;2.096;2023-02-28T08:19:41;11.90;;;8.93;;
10511;SDS011;5304;48.604;2.096;2023-02-28T08:22:25;12.83;;;8.73;;
10511;SDS011;5304;48.604;2.096;2023-02-28T08:25:10;12.20;;;8.63;;
10511;SDS011;5304;48.604;2.096;2023-02-28T08:27:54;14.00;;;8.73;;
10511;SDS011;5304;48.604;2.096;2023-02-28T08:30:39;11.67;;;7.87;;
10511;SDS011;5304;48.604;2.096;2023-02-28T08:33:24;12.13;;;8.47;;
10511;SDS011;5304;48.604;2.096;2023-02-28T08:36:10;11.43;;;8.67;;
10511;SDS011;5304;48.604;2.096;2023-02-28T08:38:56;12.73;;;9.37;;
10511;SDS011;5304;48.604;2.096;2023-02-28T08:41:42;12.53;;;9.57;;
10511;SDS011;5304;48.604;2.096;2023-02-28T08:44:27;13.90;;;8.87;;
10511;SDS011;5304;48.604;2.096;2023-02-28T08:47:11;12.90;;;9.47;;
10511;SDS011;5304;48.604;2.096;2023-02-28T08:49:56;9.90;;;8.03;;
10511;SDS011;5304;48.604;2.096;2023-02-28T08:52:43;13.70;;;9.70;;
10511;SDS011;5304;48.604;2.096;2023-02-28T08:55:28;12.67;;;9.23;;
10511;SDS011;5304;48.604;2.096;2023-02-28T08:58:13;14.80;;;9.83;;
10511;SDS011;5304;48.604;2.096;2023-02-28T09:00:57;11.13;;;8.30;;
10511;SDS011;5304;48.604;2.096;2023-02-28T09:03:42;9.43;;;7.53;;
10511;SDS011;5304;48.604;2.096;2023-02-28T09:06:27;13.13;;;7.27;;
10511;SDS011;5304;48.604;2.096;2023-02-28T09:09:12;8.93;;;7.03;;
10511;SDS011;5304;48.604;2.096;2023-02-28T09:11:56;9.90;;;7.70;;
10511;SDS011;5304;48.604;2.096;2023-02-28T09:14:41;8.63;;;7.20;;
10511;SDS011;5304;48.604;2.096;2023-02-28T09:17:27;9.30;;;6.80;;
10511;SDS011;5304;48.604;2.096;2023-02-28T09:20:11;8.53;;;7.10;;
10511;SDS011;5304;48.604;2.096;2023-02-28T09:22:56;9.20;;;7.83;;
10511;SDS011;5304;48.604;2.096;2023-02-28T09:25:51;8.07;;;7.17;;
10511;SDS011;5304;48.604;2.096;2023-02-28T09:28:37;9.00;;;6.80;;
10511;SDS011;5304;48.604;2.096;2023-02-28T09:31:23;8.77;;;6.03;;
10511;SDS011;5304;48.604;2.096;2023-02-28T09:34:10;7.00;;;6.30;;
10511;SDS011;5304;48.604;2.096;2023-02-28T09:36:54;9.00;;;7.93;;
10511;SDS011;5304;48.604;2.096;2023-02-28T09:39:38;8.03;;;6.87;;
10511;SDS011;5304;48.604;2.096;2023-02-28T09:42:25;7.60;;;5.90;;
10511;SDS011;5304;48.604;2.096;2023-02-28T09:45:37;10.83;;;6.73;;
10511;SDS011;5304;48.604;2.096;2023-02-28T09:48:23;9.47;;;6.13;;
10511;SDS011;5304;48.604;2.096;2023-02-28T09:51:33;9.00;;;5.60;;
10511;SDS011;5304;48.604;2.096;2023-02-28T09:54:27;7.33;;;5.13;;
10511;SDS011;5304;48.604;2.096;2023-02-28T10:06:20;7.37;;;5.20;;
10511;SDS011;5304;48.604;2.096;2023-02-28T10:09:27;6.27;;;4.23;;
10511;SDS011;5304;48.604;2.096;2023-02-28T10:12:14;5.90;;;4.63;;
10511;SDS011;5304;48.604;2.096;2023-02-28T10:14:59;5.37;;;4.67;;
10511;SDS011;5304;48.604;2.096;2023-02-28T10:17:47;10.77;;;5.03;;
10511;SDS011;5304;48.604;2.096;2023-02-28T10:20:38;5.90;;;3.70;;
10511;SDS011;5304;48.604;2.096;2023-02-28T10:23:28;5.07;;;3.70;;
10511;SDS011;5304;48.604;2.096;2023-02-28T10:26:16;6.50;;;3.80;;
10511;SDS011;5304;48.604;2.096;2023-02-28T10:29:01;5.17;;;4.20;;
10511;SDS011;5304;48.604;2.096;2023-02-28T10:31:47;6.50;;;3.90;;
10511;SDS011;5304;48.604;2.096;2023-02-28T10:34:32;6.30;;;4.50;;
10511;SDS011;5304;48.604;2.096;2023-02-28T10:37:16;5.63;;;4.37;;
10511;SDS011;5304;48.604;2.096;2023-02-28T10:40:01;5.97;;;4.33;;
10511;SDS011;5304;48.604;2.096;2023-02-28T10:45:53;5.37;;;3.70;;
10511;SDS011;5304;48.604;2.096;2023-02-28T10:49:24;4.97;;;4.10;;
10511;SDS011;5304;48.604;2.096;2023-02-28T10:51:54;6.57;;;4.30;;
10511;SDS011;5304;48.604;2.096;2023-02-28T10:54:41;10.23;;;3.83;;
10511;SDS011;5304;48.604;2.096;2023-02-28T10:57:27;7.80;;;4.37;;
10511;SDS011;5304;48.604;2.096;2023-02-28T11:00:15;7.20;;;4.07;;
10511;SDS011;5304;48.604;2.096;2023-02-28T11:03:03;6.70;;;4.90;;
10511;SDS011;5304;48.604;2.096;2023-02-28T11:06:29;7.07;;;4.20;;
10511;SDS011;5304;48.604;2.096;2023-02-28T11:09:20;6.00;;;4.70;;
10511;SDS011;5304;48.604;2.096;2023-02-28T11:12:34;4.90;;;3.80;;
10511;SDS011;5304;48.604;2.096;2023-02-28T11:15:27;5.77;;;4.07;;
10511;SDS011;5304;48.604;2.096;2023-02-28T11:18:19;4.90;;;3.70;;
10511;SDS011;5304;48.604;2.096;2023-02-28T11:21:21;6.83;;;3.77;;
10511;SDS011;5304;48.604;2.096;2023-02-28T11:24:18;7.93;;;4.40;;
10511;SDS011;5304;48.604;2.096;2023-02-28T11:30:24;3.90;;;3.50;;
10511;SDS011;5304;48.604;2.096;2023-02-28T11:33:22;6.97;;;3.30;;
10511;SDS011;5304;48.604;2.096;2023-02-28T11:39:07;3.43;;;2.50;;
10511;SDS011;5304;48.604;2.096;2023-02-28T11:51:39;5.17;;;3.50;;
10511;SDS011;5304;48.604;2.096;2023-02-28T11:54:39;4.67;;;3.77;;
10511;SDS011;5304;48.604;2.096;2023-02-28T11:57:59;6.77;;;4.30;;
10511;SDS011;5304;48.604;2.096;2023-02-28T12:01:00;4.73;;;3.80;;
10511;SDS011;5304;48.604;2.096;2023-02-28T12:07:06;5.23;;;4.30;;
10511;SDS011;5304;48.604;2.096;2023-02-28T12:27:47;6.27;;;4.57;;
10511;SDS011;5304;48.604;2.096;2023-02-28T12:30:34;5.13;;;4.20;;
10511;SDS011;5304;48.604;2.096;2023-02-28T12:33:23;6.37;;;5.23;;
10511;SDS011;5304;48.604;2.096;2023-02-28T12:36:14;6.17;;;4.43;;
10511;SDS011;5304;48.604;2.096;2023-02-28T12:39:04;5.67;;;4.77;;
10511;SDS011;5304;48.604;2.096;2023-02-28T12:41:59;5.97;;;4.40;;
10511;SDS011;5304;48.604;2.096;2023-02-28T12:44:52;6.33;;;4.73;;
10511;SDS011;5304;48.604;2.096;2023-02-28T12:47:57;5.00;;;4.20;;
10511;SDS011;5304;48.604;2.096;2023-02-28T12:50:47;6.97;;;4.13;;
10511;SDS011;5304;48.604;2.096;2023-02-28T12:53:41;5.03;;;4.50;;
10511;SDS011;5304;48.604;2.096;2023-02-28T12:56:39;5.00;;;4.13;;
10511;SDS011;5304;48.604;2.096;2023-02-28T13:11:47;5.10;;;4.60;;
10511;SDS011;5304;48.604;2.096;2023-02-28T13:17:21;5.13;;;3.93;;
10511;SDS011;5304;48.604;2.096;2023-02-28T13:20:20;5.70;;;4.37;;
10511;SDS011;5304;48.604;2.096;2023-02-28T13:29:35;4.93;;;4.03;;
10511;SDS011;5304;48.604;2.096;2023-02-28T13:38:01;4.80;;;4.30;;
10511;SDS011;5304;48.604;2.096;2023-02-28T13:41:18;4.97;;;4.53;;
10511;SDS011;5304;48.604;2.096;2023-02-28T13:44:14;4.80;;;4.40;;
10511;SDS011;5304;48.604;2.096;2023-02-28T13:56:03;6.17;;;4.40;;
10511;SDS011;5304;48.604;2.096;2023-02-28T13:59:20;5.73;;;4.07;;
10511;SDS011;5304;48.604;2.096;2023-02-28T14:05:24;5.67;;;4.70;;
10511;SDS011;5304;48.604;2.096;2023-02-28T14:08:15;7.87;;;4.43;;
10511;SDS011;5304;48.604;2.096;2023-02-28T14:11:05;5.33;;;4.70;;
10511;SDS011;5304;48.604;2.096;2023-02-28T14:13:53;5.60;;;5.03;;
10511;SDS011;5304;48.604;2.096;2023-02-28T14:16:47;5.57;;;4.10;;
10511;SDS011;5304;48.604;2.096;2023-02-28T14:19:34;8.07;;;4.97;;
10511;SDS011;5304;48.604;2.096;2023-02-28T14:34:03;7.63;;;4.97;;
10511;SDS011;5304;48.604;2.096;2023-02-28T14:37:05;6.50;;;5.83;;
10511;SDS011;5304;48.604;2.096;2023-02-28T14:39:51;6.93;;;5.87;;
10511;SDS011;5304;48.604;2.096;2023-02-28T14:42:37;5.90;;;4.23;;
10511;SDS011;5304;48.604;2.096;2023-02-28T14:45:25;5.77;;;4.47;;
10511;SDS011;5304;48.604;2.096;2023-02-28T14:48:15;3.90;;;3.43;;
10511;SDS011;5304;48.604;2.096;2023-02-28T14:51:01;5.03;;;3.80;;
10511;SDS011;5304;48.604;2.096;2023-02-28T14:53:45;4.10;;;3.50;;
10511;SDS011;5304;48.604;2.096;2023-02-28T14:56:37;4.43;;;4.00;;
10511;SDS011;5304;48.604;2.096;2023-02-28T14:59:27;4.70;;;3.97;;
10511;SDS011;5304;48.604;2.096;2023-02-28T15:02:21;14.03;;;8.23;;
10511;SDS011;5304;48.604;2.096;2023-02-28T15:08:13;4.47;;;3.37;;
10511;SDS011;5304;48.604;2.096;2023-02-28T15:11:01;7.67;;;3.70;;
10511;SDS011;5304;48.604;2.096;2023-02-28T15:13:49;5.87;;;4.23;;
10511;SDS011;5304;48.604;2.096;2023-02-28T15:16:39;5.07;;;3.90;;
10511;SDS011;5304;48.604;2.096;2023-02-28T15:19:32;5.80;;;4.23;;
10511;SDS011;5304;48.604;2.096;2023-02-28T15:22:23;4.80;;;3.73;;
10511;SDS011;5304;48.604;2.096;2023-02-28T15:25:20;4.40;;;3.80;;
10511;SDS011;5304;48.604;2.096;2023-02-28T15:28:09;9.33;;;3.40;;
10511;SDS011;5304;48.604;2.096;2023-02-28T15:31:02;4.13;;;3.37;;
10511;SDS011;5304;48.604;2.096;2023-02-28T15:34:05;3.60;;;2.93;;
10511;SDS011;5304;48.604;2.096;2023-02-28T15:36:56;4.40;;;3.50;;
10511;SDS011;5304;48.604;2.096;2023-02-28T15:39:41;4.30;;;3.30;;
10511;SDS011;5304;48.604;2.096;2023-02-28T15:42:29;5.57;;;4.20;;
10511;SDS011;5304;48.604;2.096;2023-02-28T15:45:28;3.53;;;3.07;;
10511;SDS011;5304;48.604;2.096;2023-02-28T15:48:23;4.77;;;4.00;;
10511;SDS011;5304;48.604;2.096;2023-02-28T15:51:22;4.93;;;3.40;;
10511;SDS011;5304;48.604;2.096;2023-02-28T15:54:24;4.13;;;3.50;;
10511;SDS011;5304;48.604;2.096;2023-02-28T15:57:14;3.87;;;3.37;;
10511;SDS011;5304;48.604;2.096;2023-02-28T16:00:11;4.97;;;3.93;;
10511;SDS011;5304;48.604;2.096;2023-02-28T16:02:57;5.23;;;3.10;;
10511;SDS011;5304;48.604;2.096;2023-02-28T16:05:42;3.80;;;3.40;;
10511;SDS011;5304;48.604;2.096;2023-02-28T16:08:26;4.73;;;3.53;;
10511;SDS011;5304;48.604;2.096;2023-02-28T16:11:11;4.70;;;3.53;;
10511;SDS011;5304;48.604;2.096;2023-02-28T16:13:56;4.00;;;3.30;;
10511;SDS011;5304;48.604;2.096;2023-02-28T16:16:45;7.50;;;6.33;;
10511;SDS011;5304;48.604;2.096;2023-02-28T16:19:32;4.97;;;4.13;;
10511;SDS011;5304;48.604;2.096;2023-02-28T16:22:16;5.70;;;3.93;;
10511;SDS011;5304;48.604;2.096;2023-02-28T16:25:00;4.47;;;3.30;;
10511;SDS011;5304;48.604;2.096;2023-02-28T16:27:48;3.47;;;3.17;;
10511;SDS011;5304;48.604;2.096;2023-02-28T16:30:37;3.77;;;3.00;;
10511;SDS011;5304;48.604;2.096;2023-02-28T16:33:21;6.03;;;4.03;;
10511;SDS011;5304;48.604;2.096;2023-02-28T16:36:06;3.43;;;2.90;;
10511;SDS011;5304;48.604;2.096;2023-02-28T16:38:53;4.20;;;3.37;;
10511;SDS011;5304;48.604;2.096;2023-02-28T16:41:38;4.00;;;3.47;;
10511;SDS011;5304;48.604;2.096;2023-02-28T16:44:27;4.20;;;3.10;;
10511;SDS011;5304;48.604;2.096;2023-02-28T16:47:13;5.13;;;3.10;;
10511;SDS011;5304;48.604;2.096;2023-02-28T16:49:58;5.37;;;3.43;;
10511;SDS011;5304;48.604;2.096;2023-02-28T16:52:43;4.23;;;3.43;;
10511;SDS011;5304;48.604;2.096;2023-02-28T16:55:28;4.33;;;3.43;;
10511;SDS011;5304;48.604;2.096;2023-02-28T16:58:13;4.17;;;3.73;;
10511;SDS011;5304;48.604;2.096;2023-02-28T17:00:59;3.50;;;3.13;;
10511;SDS011;5304;48.604;2.096;2023-02-28T17:03:43;6.13;;;4.80;;
10511;SDS011;5304;48.604;2.096;2023-02-28T17:06:28;3.80;;;3.40;;
10511;SDS011;5304;48.604;2.096;2023-02-28T17:09:17;3.63;;;3.30;;
10511;SDS011;5304;48.604;2.096;2023-02-28T17:12:05;5.60;;;3.50;;
10511;SDS011;5304;48.604;2.096;2023-02-28T17:14:51;4.87;;;3.30;;
10511;SDS011;5304;48.604;2.096;2023-02-28T17:17:35;4.33;;;3.30;;
10511;SDS011;5304;48.604;2.096;2023-02-28T17:20:20;7.00;;;3.40;;
10511;SDS011;5304;48.604;2.096;2023-02-28T17:23:10;3.53;;;3.00;;
10511;SDS011;5304;48.604;2.096;2023-02-28T17:25:55;4.13;;;3.27;;
10511;SDS011;5304;48.604;2.096;2023-02-28T17:28:39;5.23;;;3.47;;
10511;SDS011;5304;48.604;2.096;2023-02-28T17:31:25;5.30;;;3.03;;
10511;SDS011;5304;48.604;2.096;2023-02-28T17:34:10;4.13;;;3.33;;
10511;SDS011;5304;48.604;2.096;2023-02-28T17:37:01;4.00;;;3.20;;
10511;SDS011;5304;48.604;2.096;2023-02-28T17:39:46;4.63;;;3.07;;
10511;SDS011;5304;48.604;2.096;2023-02-28T17:42:31;4.33;;;3.30;;
10511;SDS011;5304;48.604;2.096;2023-02-28T17:45:15;5.63;;;3.43;;
10511;SDS011;5304;48.604;2.096;2023-02-28T17:47:59;6.23;;;4.03;;
10511;SDS011;5304;48.604;2.096;2023-02-28T17:50:45;5.23;;;3.40;;
10511;SDS011;5304;48.604;2.096;2023-02-28T17:53:29;5.63;;;3.73;;
10511;SDS011;5304;48.604;2.096;2023-02-28T17:56:16;4.03;;;3.50;;
10511;SDS011;5304;48.604;2.096;2023-02-28T17:59:01;5.10;;;3.57;;
10511;SDS011;5304;48.604;2.096;2023-02-28T18:01:46;5.23;;;3.47;;
10511;SDS011;5304;48.604;2.096;2023-02-28T18:04:31;5.10;;;3.70;;
10511;SDS011;5304;48.604;2.096;2023-02-28T18:07:15;6.37;;;3.53;;
10511;SDS011;5304;48.604;2.096;2023-02-28T18:10:06;4.90;;;3.77;;
10511;SDS011;5304;48.604;2.096;2023-02-28T18:12:56;4.07;;;3.13;;
10511;SDS011;5304;48.604;2.096;2023-02-28T18:15:41;3.90;;;3.50;;
10511;SDS011;5304;48.604;2.096;2023-02-28T18:18:25;4.93;;;3.50;;
10511;SDS011;5304;48.604;2.096;2023-02-28T18:21:11;4.37;;;3.50;;
10511;SDS011;5304;48.604;2.096;2023-02-28T18:23:57;4.53;;;3.40;;
10511;SDS011;5304;48.604;2.096;2023-02-28T18:26:42;5.77;;;3.97;;
10511;SDS011;5304;48.604;2.096;2023-02-28T18:29:28;4.67;;;3.50;;
10511;SDS011;5304;48.604;2.096;2023-02-28T18:32:14;6.30;;;4.00;;
10511;SDS011;5304;48.604;2.096;2023-02-28T18:34:58;4.17;;;3.47;;
10511;SDS011;5304;48.604;2.096;2023-02-28T18:37:43;4.83;;;3.87;;
10511;SDS011;5304;48.604;2.096;2023-02-28T18:40:27;4.80;;;3.77;;
10511;SDS011;5304;48.604;2.096;2023-02-28T18:43:12;5.37;;;4.00;;
10511;SDS011;5304;48.604;2.096;2023-02-28T18:45:56;4.70;;;3.80;;
10511;SDS011;5304;48.604;2.096;2023-02-28T18:48:41;6.67;;;3.90;;
10511;SDS011;5304;48.604;2.096;2023-02-28T18:51:27;5.63;;;4.37;;
10511;SDS011;5304;48.604;2.096;2023-02-28T18:54:13;5.00;;;3.90;;
10511;SDS011;5304;48.604;2.096;2023-02-28T18:56:59;5.70;;;4.20;;
10511;SDS011;5304;48.604;2.096;2023-02-28T18:59:43;5.73;;;4.47;;
10511;SDS011;5304;48.604;2.096;2023-02-28T19:02:28;5.33;;;4.03;;
10511;SDS011;5304;48.604;2.096;2023-02-28T19:05:12;6.13;;;4.47;;
10511;SDS011;5304;48.604;2.096;2023-02-28T19:07:57;5.83;;;4.20;;
10511;SDS011;5304;48.604;2.096;2023-02-28T19:10:41;4.67;;;3.53;;
10511;SDS011;5304;48.604;2.096;2023-02-28T19:13:26;6.93;;;4.10;;
10511;SDS011;5304;48.604;2.096;2023-02-28T19:16:12;5.10;;;4.60;;
10511;SDS011;5304;48.604;2.096;2023-02-28T19:18:58;4.80;;;4.27;;
10511;SDS011;5304;48.604;2.096;2023-02-28T19:21:42;14.33;;;4.67;;
10511;SDS011;5304;48.604;2.096;2023-02-28T19:24:26;6.53;;;4.20;;